createdAt,value
2023-05-23T00:03:54.111Z,14.10
2023-05-23T00:08:46.386Z,13.99
2023-05-23T00:13:36.440Z,13.98
2023-05-23T00:18:26.648Z,13.88
2023-05-23T00:23:19.589Z,13.85
2023-05-23T00:28:11.870Z,13.79
2023-05-23T00:33:01.840Z,13.70
2023-05-23T00:37:52.077Z,13.68
2023-05-23T00:42:41.916Z,13.64
2023-05-23T00:47:34.798Z,13.55
2023-05-23T00:52:25.121Z,13.57
2023-05-23T00:57:15.335Z,13.55
2023-05-23T01:02:05.486Z,13.59
2023-05-23T01:06:58.708Z,13.67
2023-05-23T01:11:55.066Z,13.74
2023-05-23T01:16:49.539Z,13.78
2023-05-23T01:21:40.025Z,13.78
2023-05-23T01:26:48.429Z,13.78
2023-05-23T01:31:43.732Z,13.73
2023-05-23T01:36:36.286Z,13.73
2023-05-23T01:41:29.242Z,13.71
2023-05-23T01:46:19.898Z,13.75
2023-05-23T01:51:12.264Z,13.76
2023-05-23T01:56:03.705Z,13.76
2023-05-23T02:00:53.691Z,13.81
2023-05-23T02:05:43.596Z,13.84
2023-05-23T02:10:36.323Z,13.88
2023-05-23T02:15:26.169Z,13.87
2023-05-23T02:20:16.105Z,13.86
2023-05-23T02:25:05.721Z,13.88
2023-05-23T02:29:58.456Z,13.92
2023-05-23T02:34:51.185Z,13.88
2023-05-23T02:39:41.357Z,13.87
2023-05-23T02:44:33.424Z,13.89
2023-05-23T02:49:25.849Z,13.88
2023-05-23T02:54:16.075Z,13.82
2023-05-23T02:59:06.151Z,13.79
2023-05-23T03:03:55.822Z,13.74
2023-05-23T03:08:48.479Z,13.74
2023-05-23T03:13:38.194Z,13.66
2023-05-23T03:18:27.940Z,13.64
2023-05-23T03:23:18.498Z,13.64
2023-05-23T03:28:12.407Z,13.60
2023-05-23T03:33:03.370Z,13.53
2023-05-23T03:37:56.587Z,13.49
2023-05-23T03:42:46.169Z,13.44
2023-05-23T03:47:38.631Z,13.45
2023-05-23T03:52:28.849Z,13.39
2023-05-23T03:57:18.634Z,13.34
2023-05-23T04:02:08.907Z,13.34
2023-05-23T04:07:02.843Z,13.27
2023-05-23T04:11:53.146Z,13.23
2023-05-23T04:16:45.292Z,13.15
2023-05-23T04:21:36.350Z,13.13
2023-05-23T04:26:33.181Z,13.09
2023-05-23T04:31:23.438Z,13.09
2023-05-23T04:36:16.567Z,13.07
2023-05-23T04:41:12.259Z,13.01
2023-05-23T04:46:16.906Z,12.97
2023-05-23T04:51:09.489Z,12.98
2023-05-23T04:56:04.174Z,12.92
2023-05-23T05:00:55.027Z,12.88
2023-05-23T05:05:47.364Z,12.79
2023-05-23T05:10:38.937Z,12.83
2023-05-23T05:15:29.643Z,13.10
2023-05-23T05:20:22.066Z,13.13
2023-05-23T05:25:15.894Z,13.25
2023-05-23T05:30:07.662Z,13.19
2023-05-23T05:35:08.011Z,13.27
2023-05-23T05:39:59.444Z,13.31
2023-05-23T05:44:53.546Z,13.30
2023-05-23T05:49:43.984Z,13.20
2023-05-23T05:54:34.037Z,13.18
2023-05-23T05:59:24.202Z,13.16
2023-05-23T06:04:17.044Z,13.08
2023-05-23T06:09:07.771Z,13.08
2023-05-23T06:13:58.892Z,13.12
2023-05-23T06:18:49.197Z,13.22
2023-05-23T06:23:41.973Z,13.18
2023-05-23T06:28:32.370Z,13.04
2023-05-23T06:33:23.210Z,13.16
2023-05-23T06:38:17.653Z,13.16
2023-05-23T06:43:11.311Z,13.22
2023-05-23T06:48:23.933Z,13.23
2023-05-23T06:53:15.325Z,13.19
2023-05-23T06:58:07.143Z,13.11
2023-05-23T07:03:04.001Z,13.22
2023-05-23T07:07:54.249Z,13.13
2023-05-23T07:12:44.249Z,13.11
2023-05-23T07:17:36.544Z,13.01
2023-05-23T07:22:29.514Z,12.98
2023-05-23T07:27:19.913Z,13.06
2023-05-23T07:32:11.355Z,13.14
2023-05-23T07:37:01.423Z,13.12
2023-05-23T07:42:00.835Z,13.11
2023-05-23T07:46:51.412Z,13.24
2023-05-23T07:51:42.099Z,13.43
2023-05-23T07:56:33.524Z,13.55
2023-05-23T08:01:26.193Z,13.66
2023-05-23T08:06:27.041Z,13.77
2023-05-23T08:11:22.333Z,13.85
2023-05-23T08:16:14.699Z,14.01
2023-05-23T08:21:08.664Z,14.27
2023-05-23T08:25:59.187Z,14.25
2023-05-23T08:30:49.949Z,14.28
2023-05-23T08:35:42.184Z,14.41
2023-05-23T08:40:38.858Z,14.56
2023-05-23T08:45:35.086Z,14.68
2023-05-23T08:50:26.705Z,14.86
2023-05-23T08:55:20.478Z,15.06
2023-05-23T09:00:16.882Z,15.17
2023-05-23T09:05:07.859Z,15.09
2023-05-23T09:09:58.446Z,15.28
2023-05-23T09:14:48.604Z,15.38
2023-05-23T09:19:44.282Z,15.75
2023-05-23T09:24:47.836Z,15.69
2023-05-23T09:29:41.664Z,15.89
2023-05-23T09:34:32.037Z,15.90
2023-05-23T09:39:24.618Z,16.25
2023-05-23T09:44:14.756Z,16.46
2023-05-23T09:49:04.687Z,16.91
2023-05-23T09:53:55.510Z,16.62
2023-05-23T09:58:49.608Z,16.65
2023-05-23T10:03:45.613Z,16.88
2023-05-23T10:08:41.955Z,17.06
2023-05-23T10:13:33.196Z,16.92
2023-05-23T10:18:27.996Z,16.66
2023-05-23T10:23:18.662Z,16.72
2023-05-23T10:28:08.442Z,16.88
2023-05-23T10:33:01.486Z,17.18
2023-05-23T10:37:59.060Z,17.23
2023-05-23T10:42:54.099Z,16.98
2023-05-23T10:47:43.909Z,16.68
2023-05-23T10:52:41.942Z,16.56
2023-05-23T10:57:34.512Z,16.44
2023-05-23T11:02:28.582Z,16.38
2023-05-23T11:07:33.421Z,16.23
2023-05-23T11:12:39.426Z,15.94
2023-05-23T11:17:37.235Z,15.74
2023-05-23T11:22:30.407Z,15.70
2023-05-23T11:27:20.484Z,15.69
2023-05-23T11:32:17.817Z,15.88
2023-05-23T11:37:07.926Z,16.30
2023-05-23T11:42:04.142Z,16.56
2023-05-23T11:47:02.039Z,16.77
2023-05-23T11:51:54.394Z,16.83
2023-05-23T11:56:44.073Z,16.94
2023-05-23T12:01:34.904Z,16.96
2023-05-23T12:06:25.133Z,16.98
2023-05-23T12:11:18.744Z,17.21
2023-05-23T12:16:09.820Z,17.20
2023-05-23T12:21:03.523Z,16.90
2023-05-23T12:25:56.508Z,16.90
2023-05-23T12:30:49.761Z,17.06
2023-05-23T12:35:39.641Z,17.03
2023-05-23T12:40:29.531Z,16.95
2023-05-23T12:45:19.232Z,17.28
2023-05-23T12:50:12.506Z,17.43
2023-05-23T12:55:02.170Z,17.24
2023-05-23T12:59:52.135Z,17.29
2023-05-23T13:04:41.797Z,17.34
2023-05-23T13:09:34.064Z,17.35
2023-05-23T13:14:23.900Z,17.34
2023-05-23T13:19:13.510Z,17.34
2023-05-23T13:24:03.249Z,17.29
2023-05-23T13:28:55.583Z,17.21
2023-05-23T13:33:45.314Z,17.35
2023-05-23T13:38:34.960Z,17.35
2023-05-23T13:43:24.799Z,17.42
2023-05-23T13:48:17.023Z,17.63
2023-05-23T13:53:12.435Z,17.70
2023-05-23T13:58:02.170Z,17.47
2023-05-23T14:02:51.813Z,17.02
2023-05-23T14:07:47.467Z,16.87
2023-05-23T14:12:40.773Z,16.83
2023-05-23T14:17:30.805Z,16.76
2023-05-23T14:22:20.925Z,16.74
2023-05-23T14:27:13.336Z,16.93
2023-05-23T14:32:04.383Z,17.02
2023-05-23T14:36:56.696Z,16.80
2023-05-23T14:41:47.052Z,16.62
2023-05-23T14:46:39.423Z,16.49
2023-05-23T14:51:44.710Z,16.61
2023-05-23T14:56:38.496Z,16.65
2023-05-23T15:01:28.330Z,16.64
2023-05-23T15:06:20.736Z,16.63
2023-05-23T15:11:10.457Z,16.68
2023-05-23T15:16:00.875Z,16.57
2023-05-23T15:20:50.671Z,16.57
2023-05-23T15:30:36.457Z,16.83
2023-05-23T15:35:26.311Z,16.86
2023-05-23T15:40:15.926Z,16.93
2023-05-23T15:45:08.562Z,16.79
2023-05-23T15:49:58.262Z,16.72
2023-05-23T15:54:47.864Z,16.58
2023-05-23T15:59:39.337Z,16.52
2023-05-23T16:04:31.597Z,16.44
2023-05-23T16:09:21.137Z,16.41
2023-05-23T16:14:10.918Z,16.37
2023-05-23T16:19:00.622Z,16.35
2023-05-23T16:23:53.292Z,16.38
2023-05-23T16:28:43.811Z,16.30
2023-05-23T16:33:33.627Z,16.11
2023-05-23T16:38:23.180Z,15.92
2023-05-23T16:43:15.565Z,15.77
2023-05-23T16:48:05.184Z,15.68
2023-05-23T16:52:55.537Z,15.55
2023-05-23T16:57:45.160Z,15.54
2023-05-23T17:02:37.409Z,15.63
2023-05-23T17:07:30.152Z,15.56
2023-05-23T17:12:19.954Z,15.47
2023-05-23T17:17:09.667Z,15.34
2023-05-23T17:22:03.874Z,15.28
2023-05-23T17:26:54.597Z,15.19
2023-05-23T17:31:44.604Z,15.00
2023-05-23T17:36:35.291Z,14.91
2023-05-23T17:41:27.926Z,14.91
2023-05-23T17:46:17.657Z,14.95
2023-05-23T17:51:07.437Z,14.94
2023-05-23T17:55:57.289Z,14.85
2023-05-23T18:00:50.488Z,14.75
2023-05-23T18:05:41.277Z,14.56
2023-05-23T18:10:34.207Z,14.36
2023-05-23T18:15:25.807Z,14.26
2023-05-23T18:20:18.275Z,14.15
2023-05-23T18:25:08.567Z,14.08
2023-05-23T18:29:58.346Z,14.01
2023-05-23T18:34:47.995Z,13.85
2023-05-23T18:39:40.394Z,13.71
2023-05-23T18:44:30.102Z,13.59
2023-05-23T18:49:19.723Z,13.50
2023-05-23T18:54:09.398Z,13.44
2023-05-23T18:59:01.690Z,13.34
2023-05-23T19:03:51.570Z,13.28
2023-05-23T19:08:41.299Z,13.19
2023-05-23T19:13:31.153Z,13.09
2023-05-23T19:18:26.561Z,13.01
2023-05-23T19:23:16.478Z,12.88
2023-05-23T19:28:06.285Z,12.81
2023-05-23T19:32:56.008Z,12.77
2023-05-23T19:37:49.512Z,12.69
2023-05-23T19:42:39.151Z,12.57
2023-05-23T19:47:30.811Z,12.53
2023-05-23T19:52:20.865Z,12.41
2023-05-23T19:57:13.089Z,12.34
2023-05-23T20:02:02.866Z,12.26
2023-05-23T20:06:52.638Z,12.16
2023-05-23T20:11:43.114Z,12.09
2023-05-23T20:16:35.578Z,12.01
2023-05-23T20:21:25.182Z,11.95
2023-05-23T20:26:14.886Z,11.89
2023-05-23T20:31:04.578Z,11.85
2023-05-23T20:35:59.800Z,11.79
2023-05-23T20:40:52.476Z,11.76
2023-05-23T20:45:43.090Z,11.74
2023-05-23T20:50:35.225Z,11.75
2023-05-23T20:55:29.199Z,11.72
2023-05-23T21:00:21.999Z,11.70
2023-05-23T21:05:12.734Z,11.66
2023-05-23T21:10:02.366Z,11.59
2023-05-23T21:14:54.725Z,11.55
2023-05-23T21:19:44.367Z,11.50
2023-05-23T21:24:34.091Z,11.42
2023-05-23T21:29:23.747Z,11.38
2023-05-23T21:34:24.024Z,11.36
2023-05-23T21:39:15.718Z,11.36
2023-05-23T21:44:05.462Z,11.33
2023-05-23T21:48:55.165Z,11.33
2023-05-23T21:53:47.454Z,11.33
2023-05-23T21:58:38.181Z,11.31
2023-05-23T22:03:28.292Z,11.31
2023-05-23T22:08:18.233Z,11.23
2023-05-23T22:13:10.544Z,11.18
2023-05-23T22:18:00.319Z,11.16
2023-05-23T22:22:50.057Z,11.08
2023-05-23T22:27:39.793Z,11.06
2023-05-23T22:32:32.147Z,11.05
2023-05-23T22:37:22.117Z,11.01
2023-05-23T22:42:11.990Z,10.98
2023-05-23T22:47:04.006Z,10.94
2023-05-23T22:51:56.958Z,10.90
2023-05-23T22:56:48.117Z,10.88
2023-05-23T23:01:37.818Z,10.88
2023-05-23T23:06:27.700Z,10.88
2023-05-23T23:11:20.453Z,10.88
2023-05-23T23:16:11.173Z,10.88
2023-05-23T23:21:00.775Z,10.87
2023-05-23T23:25:50.584Z,10.84
2023-05-23T23:30:44.030Z,10.85
2023-05-23T23:35:35.654Z,10.83
2023-05-23T23:40:25.287Z,10.81
2023-05-23T23:45:14.962Z,10.79
2023-05-23T23:50:07.540Z,10.78
2023-05-23T23:54:57.315Z,10.77
2023-05-23T23:59:47.128Z,10.77
